sensor_id;sensor_type;location;lat;lon;timestamp;temperature;humidity
41720;DHT22;27405;53.316;-6.294;2023-04-03T00:01:13;7.90;99.90
41720;DHT22;27405;53.316;-6.294;2023-04-03T00:03:39;7.90;99.90
41720;DHT22;27405;53.316;-6.294;2023-04-03T00:06:07;8.00;99.90
41720;DHT22;27405;53.316;-6.294;2023-04-03T00:08:34;8.00;99.90
41720;DHT22;27405;53.316;-6.294;2023-04-03T00:11:00;8.00;99.90
41720;DHT22;27405;53.316;-6.294;2023-04-03T00:13:26;8.00;99.90
41720;DHT22;27405;53.316;-6.294;2023-04-03T00:15:52;8.00;99.90
41720;DHT22;27405;53.316;-6.294;2023-04-03T00:18:18;8.00;99.90
41720;DHT22;27405;53.316;-6.294;2023-04-03T00:20:43;8.00;99.90
41720;DHT22;27405;53.316;-6.294;2023-04-03T00:23:09;8.00;99.90
41720;DHT22;27405;53.316;-6.294;2023-04-03T00:25:36;8.00;99.90
41720;DHT22;27405;53.316;-6.294;2023-04-03T00:28:02;8.00;99.90
41720;DHT22;27405;53.316;-6.294;2023-04-03T00:30:28;7.90;99.90
41720;DHT22;27405;53.316;-6.294;2023-04-03T00:32:54;7.90;99.90
41720;DHT22;27405;53.316;-6.294;2023-04-03T00:35:21;7.90;99.90
41720;DHT22;27405;53.316;-6.294;2023-04-03T00:37:47;7.90;99.90
41720;DHT22;27405;53.316;-6.294;2023-04-03T00:40:15;7.90;99.90
41720;DHT22;27405;53.316;-6.294;2023-04-03T00:42:43;7.80;99.90
41720;DHT22;27405;53.316;-6.294;2023-04-03T00:47:43;7.80;99.90
41720;DHT22;27405;53.316;-6.294;2023-04-03T00:50:10;7.80;99.90
41720;DHT22;27405;53.316;-6.294;2023-04-03T00:52:37;7.70;99.90
41720;DHT22;27405;53.316;-6.294;2023-04-03T00:55:06;7.70;99.90
41720;DHT22;27405;53.316;-6.294;2023-04-03T00:57:33;7.70;99.90
41720;DHT22;27405;53.316;-6.294;2023-04-03T01:00:07;7.70;99.90
41720;DHT22;27405;53.316;-6.294;2023-04-03T01:02:34;7.70;99.90
41720;DHT22;27405;53.316;-6.294;2023-04-03T01:05:00;7.70;99.90
41720;DHT22;27405;53.316;-6.294;2023-04-03T01:07:29;7.70;99.90
41720;DHT22;27405;53.316;-6.294;2023-04-03T01:09:58;7.70;99.90
41720;DHT22;27405;53.316;-6.294;2023-04-03T01:12:30;7.70;99.90
41720;DHT22;27405;53.316;-6.294;2023-04-03T01:15:05;7.60;99.90
41720;DHT22;27405;53.316;-6.294;2023-04-03T01:17:50;7.70;99.90
41720;DHT22;27405;53.316;-6.294;2023-04-03T01:28:08;7.60;99.90
41720;DHT22;27405;53.316;-6.294;2023-04-03T01:30:41;7.60;99.90
41720;DHT22;27405;53.316;-6.294;2023-04-03T01:33:08;7.60;99.90
41720;DHT22;27405;53.316;-6.294;2023-04-03T01:35:34;7.60;99.90
41720;DHT22;27405;53.316;-6.294;2023-04-03T01:38:00;7.70;99.90
41720;DHT22;27405;53.316;-6.294;2023-04-03T01:40:25;7.70;99.90
41720;DHT22;27405;53.316;-6.294;2023-04-03T01:42:51;7.70;99.90
41720;DHT22;27405;53.316;-6.294;2023-04-03T01:45:17;7.70;99.90
41720;DHT22;27405;53.316;-6.294;2023-04-03T01:47:43;7.70;99.90
41720;DHT22;27405;53.316;-6.294;2023-04-03T01:50:08;7.70;99.90
41720;DHT22;27405;53.316;-6.294;2023-04-03T01:52:34;7.70;99.90
41720;DHT22;27405;53.316;-6.294;2023-04-03T01:55:00;7.70;99.90
41720;DHT22;27405;53.316;-6.294;2023-04-03T01:57:25;7.70;99.90
41720;DHT22;27405;53.316;-6.294;2023-04-03T01:59:51;7.70;99.90
41720;DHT22;27405;53.316;-6.294;2023-04-03T02:02:17;7.80;99.90
41720;DHT22;27405;53.316;-6.294;2023-04-03T02:04:42;7.80;99.90
41720;DHT22;27405;53.316;-6.294;2023-04-03T02:07:08;7.80;99.90
41720;DHT22;27405;53.316;-6.294;2023-04-03T02:09:34;7.80;99.90
41720;DHT22;27405;53.316;-6.294;2023-04-03T02:12:00;7.90;99.90
41720;DHT22;27405;53.316;-6.294;2023-04-03T02:14:25;7.90;99.90
41720;DHT22;27405;53.316;-6.294;2023-04-03T02:16:52;7.90;99.90
41720;DHT22;27405;53.316;-6.294;2023-04-03T02:19:18;7.90;99.90
41720;DHT22;27405;53.316;-6.294;2023-04-03T02:21:44;8.00;99.90
41720;DHT22;27405;53.316;-6.294;2023-04-03T02:24:10;8.00;99.90
41720;DHT22;27405;53.316;-6.294;2023-04-03T02:26:35;8.10;99.90
41720;DHT22;27405;53.316;-6.294;2023-04-03T02:29:01;8.10;99.90
41720;DHT22;27405;53.316;-6.294;2023-04-03T02:31:27;8.20;99.90
41720;DHT22;27405;53.316;-6.294;2023-04-03T02:33:52;8.20;99.90
41720;DHT22;27405;53.316;-6.294;2023-04-03T02:36:18;8.20;99.90
41720;DHT22;27405;53.316;-6.294;2023-04-03T02:38:44;8.20;99.90
41720;DHT22;27405;53.316;-6.294;2023-04-03T02:41:11;8.20;99.90
41720;DHT22;27405;53.316;-6.294;2023-04-03T02:43:38;8.20;99.90
41720;DHT22;27405;53.316;-6.294;2023-04-03T02:46:04;8.20;99.90
41720;DHT22;27405;53.316;-6.294;2023-04-03T02:48:30;8.20;99.90
41720;DHT22;27405;53.316;-6.294;2023-04-03T02:50:56;8.20;99.90
41720;DHT22;27405;53.316;-6.294;2023-04-03T02:53:22;8.10;99.90
41720;DHT22;27405;53.316;-6.294;2023-04-03T02:55:48;8.10;99.90
41720;DHT22;27405;53.316;-6.294;2023-04-03T02:58:13;8.10;99.90
41720;DHT22;27405;53.316;-6.294;2023-04-03T03:00:39;8.10;99.90
41720;DHT22;27405;53.316;-6.294;2023-04-03T03:03:05;8.10;99.90
41720;DHT22;27405;53.316;-6.294;2023-04-03T03:05:32;8.10;99.90
41720;DHT22;27405;53.316;-6.294;2023-04-03T03:07:58;8.10;99.90
41720;DHT22;27405;53.316;-6.294;2023-04-03T03:10:24;8.10;99.90
41720;DHT22;27405;53.316;-6.294;2023-04-03T03:12:50;8.00;99.90
41720;DHT22;27405;53.316;-6.294;2023-04-03T03:15:16;8.00;99.90
41720;DHT22;27405;53.316;-6.294;2023-04-03T03:17:43;8.00;99.90
41720;DHT22;27405;53.316;-6.294;2023-04-03T03:20:09;7.90;99.90
41720;DHT22;27405;53.316;-6.294;2023-04-03T03:22:35;7.90;99.90
41720;DHT22;27405;53.316;-6.294;2023-04-03T03:25:02;7.90;99.90
41720;DHT22;27405;53.316;-6.294;2023-04-03T03:27:28;7.90;99.90
41720;DHT22;27405;53.316;-6.294;2023-04-03T03:29:54;7.90;99.90
41720;DHT22;27405;53.316;-6.294;2023-04-03T03:32:19;7.90;99.90
41720;DHT22;27405;53.316;-6.294;2023-04-03T03:34:45;7.90;99.90
41720;DHT22;27405;53.316;-6.294;2023-04-03T03:37:11;7.90;99.90
41720;DHT22;27405;53.316;-6.294;2023-04-03T03:39:37;7.90;99.90
41720;DHT22;27405;53.316;-6.294;2023-04-03T03:42:03;7.90;99.90
41720;DHT22;27405;53.316;-6.294;2023-04-03T03:44:29;7.90;99.90
41720;DHT22;27405;53.316;-6.294;2023-04-03T03:46:55;7.90;99.90
41720;DHT22;27405;53.316;-6.294;2023-04-03T03:49:21;7.90;99.90
41720;DHT22;27405;53.316;-6.294;2023-04-03T03:51:47;8.00;99.90
41720;DHT22;27405;53.316;-6.294;2023-04-03T03:54:13;8.00;99.90
41720;DHT22;27405;53.316;-6.294;2023-04-03T03:56:39;7.90;99.90
41720;DHT22;27405;53.316;-6.294;2023-04-03T03:59:05;8.00;99.90
41720;DHT22;27405;53.316;-6.294;2023-04-03T04:01:31;8.00;99.90
41720;DHT22;27405;53.316;-6.294;2023-04-03T04:03:56;8.00;99.90
41720;DHT22;27405;53.316;-6.294;2023-04-03T04:06:22;7.90;99.90
41720;DHT22;27405;53.316;-6.294;2023-04-03T04:08:48;7.90;99.90
41720;DHT22;27405;53.316;-6.294;2023-04-03T04:11:14;8.00;99.90
41720;DHT22;27405;53.316;-6.294;2023-04-03T04:13:40;8.00;99.90
41720;DHT22;27405;53.316;-6.294;2023-04-03T04:16:06;8.00;99.90
41720;DHT22;27405;53.316;-6.294;2023-04-03T04:18:32;8.00;99.90
41720;DHT22;27405;53.316;-6.294;2023-04-03T04:20:58;8.10;99.90
41720;DHT22;27405;53.316;-6.294;2023-04-03T04:23:23;8.10;99.90
41720;DHT22;27405;53.316;-6.294;2023-04-03T04:25:50;8.20;99.90
41720;DHT22;27405;53.316;-6.294;2023-04-03T04:28:17;8.30;99.90
41720;DHT22;27405;53.316;-6.294;2023-04-03T04:30:43;8.30;99.90
41720;DHT22;27405;53.316;-6.294;2023-04-03T04:33:09;8.30;99.90
41720;DHT22;27405;53.316;-6.294;2023-04-03T04:35:35;8.40;99.90
41720;DHT22;27405;53.316;-6.294;2023-04-03T04:38:01;8.40;99.90
41720;DHT22;27405;53.316;-6.294;2023-04-03T04:40:27;8.40;99.90
41720;DHT22;27405;53.316;-6.294;2023-04-03T04:42:52;8.40;99.90
41720;DHT22;27405;53.316;-6.294;2023-04-03T04:45:18;8.40;99.90
41720;DHT22;27405;53.316;-6.294;2023-04-03T04:47:44;8.40;99.90
41720;DHT22;27405;53.316;-6.294;2023-04-03T04:50:10;8.30;99.90
41720;DHT22;27405;53.316;-6.294;2023-04-03T04:52:37;8.30;99.90
41720;DHT22;27405;53.316;-6.294;2023-04-03T04:55:03;8.30;99.90
41720;DHT22;27405;53.316;-6.294;2023-04-03T04:57:29;8.30;99.90
41720;DHT22;27405;53.316;-6.294;2023-04-03T04:59:54;8.40;99.90
41720;DHT22;27405;53.316;-6.294;2023-04-03T05:02:20;8.40;99.90
41720;DHT22;27405;53.316;-6.294;2023-04-03T05:04:46;8.40;99.90
41720;DHT22;27405;53.316;-6.294;2023-04-03T05:07:11;8.40;99.90
41720;DHT22;27405;53.316;-6.294;2023-04-03T05:09:37;8.50;99.90
41720;DHT22;27405;53.316;-6.294;2023-04-03T05:12:03;8.50;99.90
41720;DHT22;27405;53.316;-6.294;2023-04-03T05:14:29;8.60;99.90
41720;DHT22;27405;53.316;-6.294;2023-04-03T05:16:55;8.60;99.90
41720;DHT22;27405;53.316;-6.294;2023-04-03T05:19:21;8.70;99.90
41720;DHT22;27405;53.316;-6.294;2023-04-03T05:21:47;8.70;99.90
41720;DHT22;27405;53.316;-6.294;2023-04-03T05:24:15;8.80;99.90
41720;DHT22;27405;53.316;-6.294;2023-04-03T05:26:42;8.80;99.90
41720;DHT22;27405;53.316;-6.294;2023-04-03T05:29:08;8.90;99.90
41720;DHT22;27405;53.316;-6.294;2023-04-03T05:31:34;8.90;99.90
41720;DHT22;27405;53.316;-6.294;2023-04-03T05:33:59;8.90;99.90
41720;DHT22;27405;53.316;-6.294;2023-04-03T05:36:25;9.00;99.90
41720;DHT22;27405;53.316;-6.294;2023-04-03T05:38:51;9.00;99.90
41720;DHT22;27405;53.316;-6.294;2023-04-03T05:41:17;9.00;99.90
41720;DHT22;27405;53.316;-6.294;2023-04-03T05:43:43;9.00;99.90
41720;DHT22;27405;53.316;-6.294;2023-04-03T05:46:17;9.00;99.90
41720;DHT22;27405;53.316;-6.294;2023-04-03T05:48:44;9.00;99.90
41720;DHT22;27405;53.316;-6.294;2023-04-03T05:51:19;9.10;99.90
41720;DHT22;27405;53.316;-6.294;2023-04-03T05:53:45;9.10;99.90
41720;DHT22;27405;53.316;-6.294;2023-04-03T05:56:12;9.10;99.90
41720;DHT22;27405;53.316;-6.294;2023-04-03T05:58:38;9.10;99.90
41720;DHT22;27405;53.316;-6.294;2023-04-03T06:01:04;9.10;99.90
41720;DHT22;27405;53.316;-6.294;2023-04-03T06:03:31;9.10;99.90
41720;DHT22;27405;53.316;-6.294;2023-04-03T06:05:56;9.10;99.90
41720;DHT22;27405;53.316;-6.294;2023-04-03T06:08:22;9.10;99.90
41720;DHT22;27405;53.316;-6.294;2023-04-03T06:10:49;9.10;99.90
41720;DHT22;27405;53.316;-6.294;2023-04-03T06:13:16;9.10;99.90
41720;DHT22;27405;53.316;-6.294;2023-04-03T06:15:42;9.20;99.90
41720;DHT22;27405;53.316;-6.294;2023-04-03T06:18:08;9.20;99.90
41720;DHT22;27405;53.316;-6.294;2023-04-03T06:20:34;9.20;99.90
41720;DHT22;27405;53.316;-6.294;2023-04-03T06:22:59;9.30;99.90
41720;DHT22;27405;53.316;-6.294;2023-04-03T06:25:25;9.30;99.90
41720;DHT22;27405;53.316;-6.294;2023-04-03T06:27:51;9.40;99.90
41720;DHT22;27405;53.316;-6.294;2023-04-03T06:30:17;9.40;99.90
41720;DHT22;27405;53.316;-6.294;2023-04-03T06:32:43;9.50;99.90
41720;DHT22;27405;53.316;-6.294;2023-04-03T06:35:09;9.60;99.90
41720;DHT22;27405;53.316;-6.294;2023-04-03T06:37:34;9.70;99.90
41720;DHT22;27405;53.316;-6.294;2023-04-03T06:40:01;9.70;99.90
41720;DHT22;27405;53.316;-6.294;2023-04-03T06:42:27;9.70;99.90
41720;DHT22;27405;53.316;-6.294;2023-04-03T06:44:52;9.80;99.90
41720;DHT22;27405;53.316;-6.294;2023-04-03T06:47:18;9.80;99.90
41720;DHT22;27405;53.316;-6.294;2023-04-03T06:49:44;9.90;99.90
41720;DHT22;27405;53.316;-6.294;2023-04-03T06:52:10;9.90;99.90
41720;DHT22;27405;53.316;-6.294;2023-04-03T06:54:37;9.90;99.90
41720;DHT22;27405;53.316;-6.294;2023-04-03T06:57:03;9.90;99.90
41720;DHT22;27405;53.316;-6.294;2023-04-03T06:59:29;10.00;99.90
41720;DHT22;27405;53.316;-6.294;2023-04-03T07:01:55;10.00;99.90
41720;DHT22;27405;53.316;-6.294;2023-04-03T07:04:21;10.00;99.90
41720;DHT22;27405;53.316;-6.294;2023-04-03T07:06:47;10.00;99.90
41720;DHT22;27405;53.316;-6.294;2023-04-03T07:09:16;10.00;99.90
41720;DHT22;27405;53.316;-6.294;2023-04-03T07:11:41;10.00;99.90
41720;DHT22;27405;53.316;-6.294;2023-04-03T07:14:07;10.10;99.90
41720;DHT22;27405;53.316;-6.294;2023-04-03T07:16:34;10.10;99.90
41720;DHT22;27405;53.316;-6.294;2023-04-03T07:19:00;10.10;99.90
41720;DHT22;27405;53.316;-6.294;2023-04-03T07:21:27;10.20;99.90
41720;DHT22;27405;53.316;-6.294;2023-04-03T07:23:53;10.20;99.90
41720;DHT22;27405;53.316;-6.294;2023-04-03T07:26:19;10.30;99.90
41720;DHT22;27405;53.316;-6.294;2023-04-03T07:28:46;10.40;99.90
41720;DHT22;27405;53.316;-6.294;2023-04-03T07:31:14;10.40;99.90
41720;DHT22;27405;53.316;-6.294;2023-04-03T07:33:41;10.40;99.90
41720;DHT22;27405;53.316;-6.294;2023-04-03T07:36:07;10.50;99.90
41720;DHT22;27405;53.316;-6.294;2023-04-03T07:38:34;10.50;99.90
41720;DHT22;27405;53.316;-6.294;2023-04-03T07:41:00;10.60;99.90
41720;DHT22;27405;53.316;-6.294;2023-04-03T07:43:26;10.60;99.90
41720;DHT22;27405;53.316;-6.294;2023-04-03T07:45:52;10.60;99.90
41720;DHT22;27405;53.316;-6.294;2023-04-03T07:48:24;10.70;99.90
41720;DHT22;27405;53.316;-6.294;2023-04-03T07:50:50;10.70;99.90
41720;DHT22;27405;53.316;-6.294;2023-04-03T07:53:16;10.70;99.90
41720;DHT22;27405;53.316;-6.294;2023-04-03T07:55:42;10.70;99.90
41720;DHT22;27405;53.316;-6.294;2023-04-03T07:58:11;10.70;99.90
41720;DHT22;27405;53.316;-6.294;2023-04-03T08:00:38;10.70;99.90
41720;DHT22;27405;53.316;-6.294;2023-04-03T08:03:05;10.80;99.90
41720;DHT22;27405;53.316;-6.294;2023-04-03T08:05:31;10.80;99.90
41720;DHT22;27405;53.316;-6.294;2023-04-03T08:07:57;10.90;99.90
41720;DHT22;27405;53.316;-6.294;2023-04-03T08:10:23;10.90;99.90
41720;DHT22;27405;53.316;-6.294;2023-04-03T08:12:48;11.00;99.90
41720;DHT22;27405;53.316;-6.294;2023-04-03T08:15:14;11.10;99.90
41720;DHT22;27405;53.316;-6.294;2023-04-03T08:17:40;11.10;99.90
41720;DHT22;27405;53.316;-6.294;2023-04-03T08:20:07;11.20;99.90
41720;DHT22;27405;53.316;-6.294;2023-04-03T08:22:34;11.20;99.90
41720;DHT22;27405;53.316;-6.294;2023-04-03T08:25:00;11.30;99.90
41720;DHT22;27405;53.316;-6.294;2023-04-03T08:27:27;11.20;99.90
41720;DHT22;27405;53.316;-6.294;2023-04-03T08:29:54;11.10;99.90
41720;DHT22;27405;53.316;-6.294;2023-04-03T08:32:20;11.10;99.90
41720;DHT22;27405;53.316;-6.294;2023-04-03T08:34:45;11.00;99.90
41720;DHT22;27405;53.316;-6.294;2023-04-03T08:37:11;11.00;99.90
41720;DHT22;27405;53.316;-6.294;2023-04-03T08:39:37;11.00;99.90
41720;DHT22;27405;53.316;-6.294;2023-04-03T08:42:14;11.10;99.90
41720;DHT22;27405;53.316;-6.294;2023-04-03T08:45:01;11.10;99.90
41720;DHT22;27405;53.316;-6.294;2023-04-03T08:47:58;11.20;99.90
41720;DHT22;27405;53.316;-6.294;2023-04-03T08:50:41;11.30;99.90
41720;DHT22;27405;53.316;-6.294;2023-04-03T08:53:20;11.40;99.90
41720;DHT22;27405;53.316;-6.294;2023-04-03T08:55:48;11.50;99.90
41720;DHT22;27405;53.316;-6.294;2023-04-03T08:58:22;11.60;99.90
41720;DHT22;27405;53.316;-6.294;2023-04-03T09:01:05;11.70;99.90
41720;DHT22;27405;53.316;-6.294;2023-04-03T09:03:33;11.80;99.90
41720;DHT22;27405;53.316;-6.294;2023-04-03T09:06:35;11.90;99.90
41720;DHT22;27405;53.316;-6.294;2023-04-03T09:09:11;12.00;99.90
41720;DHT22;27405;53.316;-6.294;2023-04-03T09:11:58;12.10;99.90
41720;DHT22;27405;53.316;-6.294;2023-04-03T09:14:38;12.10;99.90
41720;DHT22;27405;53.316;-6.294;2023-04-03T09:22:50;12.40;99.90
41720;DHT22;27405;53.316;-6.294;2023-04-03T09:25:27;12.40;99.90
41720;DHT22;27405;53.316;-6.294;2023-04-03T09:27:55;12.50;99.90
41720;DHT22;27405;53.316;-6.294;2023-04-03T09:30:23;12.60;99.90
41720;DHT22;27405;53.316;-6.294;2023-04-03T09:32:52;12.60;99.90
41720;DHT22;27405;53.316;-6.294;2023-04-03T09:35:23;12.70;99.90
41720;DHT22;27405;53.316;-6.294;2023-04-03T09:37:54;12.80;99.90
41720;DHT22;27405;53.316;-6.294;2023-04-03T09:42:52;13.00;99.90
41720;DHT22;27405;53.316;-6.294;2023-04-03T09:45:24;13.00;99.90
41720;DHT22;27405;53.316;-6.294;2023-04-03T09:53:32;13.00;99.90
41720;DHT22;27405;53.316;-6.294;2023-04-03T09:55:59;13.00;99.90
41720;DHT22;27405;53.316;-6.294;2023-04-03T09:58:36;13.10;99.90
41720;DHT22;27405;53.316;-6.294;2023-04-03T10:01:03;13.20;99.90
41720;DHT22;27405;53.316;-6.294;2023-04-03T10:05:55;13.40;99.90
41720;DHT22;27405;53.316;-6.294;2023-04-03T10:08:34;13.50;99.90
41720;DHT22;27405;53.316;-6.294;2023-04-03T10:11:17;13.50;99.90
41720;DHT22;27405;53.316;-6.294;2023-04-03T10:13:58;13.50;99.90
41720;DHT22;27405;53.316;-6.294;2023-04-03T10:21:55;13.20;99.90
41720;DHT22;27405;53.316;-6.294;2023-04-03T10:25:13;13.10;99.90
41720;DHT22;27405;53.316;-6.294;2023-04-03T10:30:04;13.20;99.90
41720;DHT22;27405;53.316;-6.294;2023-04-03T10:36:24;13.20;99.90
41720;DHT22;27405;53.316;-6.294;2023-04-03T10:44:32;13.50;99.90
41720;DHT22;27405;53.316;-6.294;2023-04-03T10:47:07;13.70;99.90
41720;DHT22;27405;53.316;-6.294;2023-04-03T10:58:06;13.60;99.90
41720;DHT22;27405;53.316;-6.294;2023-04-03T11:00:45;13.70;99.90
41720;DHT22;27405;53.316;-6.294;2023-04-03T11:05:53;13.90;99.90
41720;DHT22;27405;53.316;-6.294;2023-04-03T11:08:28;14.00;99.90
41720;DHT22;27405;53.316;-6.294;2023-04-03T11:11:40;13.90;99.90
41720;DHT22;27405;53.316;-6.294;2023-04-03T11:14:24;13.90;99.90
41720;DHT22;27405;53.316;-6.294;2023-04-03T11:22:25;13.80;99.90
41720;DHT22;27405;53.316;-6.294;2023-04-03T11:25:20;13.60;99.90
41720;DHT22;27405;53.316;-6.294;2023-04-03T11:35:36;13.20;99.90
41720;DHT22;27405;53.316;-6.294;2023-04-03T11:38:04;13.20;99.90
41720;DHT22;27405;53.316;-6.294;2023-04-03T11:40:35;13.30;99.90
41720;DHT22;27405;53.316;-6.294;2023-04-03T11:43:24;13.40;99.90
41720;DHT22;27405;53.316;-6.294;2023-04-03T11:46:01;13.50;99.90
41720;DHT22;27405;53.316;-6.294;2023-04-03T11:53:43;13.70;99.90
41720;DHT22;27405;53.316;-6.294;2023-04-03T11:59:22;13.70;99.90
41720;DHT22;27405;53.316;-6.294;2023-04-03T12:01:53;13.70;99.90
41720;DHT22;27405;53.316;-6.294;2023-04-03T12:04:22;13.80;99.90
41720;DHT22;27405;53.316;-6.294;2023-04-03T12:09:31;14.00;99.90
41720;DHT22;27405;53.316;-6.294;2023-04-03T12:11:59;14.00;99.90
41720;DHT22;27405;53.316;-6.294;2023-04-03T12:14:25;14.10;99.90
41720;DHT22;27405;53.316;-6.294;2023-04-03T12:16:56;14.10;99.90
41720;DHT22;27405;53.316;-6.294;2023-04-03T12:19:37;14.20;99.90
41720;DHT22;27405;53.316;-6.294;2023-04-03T12:22:13;14.10;99.90
41720;DHT22;27405;53.316;-6.294;2023-04-03T12:24:46;14.00;99.90
41720;DHT22;27405;53.316;-6.294;2023-04-03T12:27:29;14.00;99.90
41720;DHT22;27405;53.316;-6.294;2023-04-03T12:32:47;14.10;99.90
41720;DHT22;27405;53.316;-6.294;2023-04-03T12:43:20;14.10;99.90
41720;DHT22;27405;53.316;-6.294;2023-04-03T12:48:25;14.00;99.90
41720;DHT22;27405;53.316;-6.294;2023-04-03T12:50:51;14.00;99.90
41720;DHT22;27405;53.316;-6.294;2023-04-03T12:53:26;13.90;99.90
41720;DHT22;27405;53.316;-6.294;2023-04-03T12:58:48;14.00;99.90
41720;DHT22;27405;53.316;-6.294;2023-04-03T13:01:16;14.00;99.90
41720;DHT22;27405;53.316;-6.294;2023-04-03T13:03:55;14.10;99.90
41720;DHT22;27405;53.316;-6.294;2023-04-03T13:06:27;14.20;99.90
41720;DHT22;27405;53.316;-6.294;2023-04-03T13:08:55;14.20;99.90
41720;DHT22;27405;53.316;-6.294;2023-04-03T13:11:23;14.30;99.90
41720;DHT22;27405;53.316;-6.294;2023-04-03T13:14:02;14.30;99.90
41720;DHT22;27405;53.316;-6.294;2023-04-03T13:16:29;14.30;99.90
41720;DHT22;27405;53.316;-6.294;2023-04-03T13:18:55;14.30;99.90
41720;DHT22;27405;53.316;-6.294;2023-04-03T13:21:26;14.30;99.90
41720;DHT22;27405;53.316;-6.294;2023-04-03T13:23:56;14.30;99.90
41720;DHT22;27405;53.316;-6.294;2023-04-03T13:26:29;14.50;99.90
41720;DHT22;27405;53.316;-6.294;2023-04-03T13:29:05;14.40;99.90
41720;DHT22;27405;53.316;-6.294;2023-04-03T13:31:34;14.40;99.90
41720;DHT22;27405;53.316;-6.294;2023-04-03T13:34:05;14.50;99.90
41720;DHT22;27405;53.316;-6.294;2023-04-03T13:36:35;14.40;99.90
41720;DHT22;27405;53.316;-6.294;2023-04-03T13:39:20;14.40;99.90
41720;DHT22;27405;53.316;-6.294;2023-04-03T13:41:52;14.30;99.90
41720;DHT22;27405;53.316;-6.294;2023-04-03T13:46:51;14.20;99.90
41720;DHT22;27405;53.316;-6.294;2023-04-03T13:49:37;14.20;99.90
41720;DHT22;27405;53.316;-6.294;2023-04-03T13:52:28;14.30;99.90
41720;DHT22;27405;53.316;-6.294;2023-04-03T13:54:59;14.40;99.90
41720;DHT22;27405;53.316;-6.294;2023-04-03T13:57:26;14.30;99.90
41720;DHT22;27405;53.316;-6.294;2023-04-03T13:59:52;14.30;99.90
41720;DHT22;27405;53.316;-6.294;2023-04-03T14:04:54;14.30;99.90
41720;DHT22;27405;53.316;-6.294;2023-04-03T14:07:23;14.40;99.90
41720;DHT22;27405;53.316;-6.294;2023-04-03T14:09:50;14.50;99.90
41720;DHT22;27405;53.316;-6.294;2023-04-03T14:12:37;14.50;99.90
41720;DHT22;27405;53.316;-6.294;2023-04-03T14:15:11;14.60;99.90
41720;DHT22;27405;53.316;-6.294;2023-04-03T14:17:37;14.60;99.90
41720;DHT22;27405;53.316;-6.294;2023-04-03T14:20:04;14.70;99.90
41720;DHT22;27405;53.316;-6.294;2023-04-03T14:22:32;14.70;99.90
41720;DHT22;27405;53.316;-6.294;2023-04-03T14:25:00;14.70;99.90
41720;DHT22;27405;53.316;-6.294;2023-04-03T14:27:34;14.60;99.90
41720;DHT22;27405;53.316;-6.294;2023-04-03T14:30:02;14.60;99.90
41720;DHT22;27405;53.316;-6.294;2023-04-03T14:32:29;14.50;99.90
41720;DHT22;27405;53.316;-6.294;2023-04-03T14:34:56;14.40;99.90
41720;DHT22;27405;53.316;-6.294;2023-04-03T14:37:27;14.30;99.90
41720;DHT22;27405;53.316;-6.294;2023-04-03T14:39:55;14.40;99.90
41720;DHT22;27405;53.316;-6.294;2023-04-03T14:42:24;14.40;99.90
41720;DHT22;27405;53.316;-6.294;2023-04-03T14:44:50;14.40;99.80
41720;DHT22;27405;53.316;-6.294;2023-04-03T14:47:20;14.30;99.80
41720;DHT22;27405;53.316;-6.294;2023-04-03T14:49:47;14.40;99.90
41720;DHT22;27405;53.316;-6.294;2023-04-03T14:52:30;14.50;99.50
41720;DHT22;27405;53.316;-6.294;2023-04-03T14:54:57;14.50;99.20
41720;DHT22;27405;53.316;-6.294;2023-04-03T14:57:25;14.50;99.40
41720;DHT22;27405;53.316;-6.294;2023-04-03T14:59:51;14.60;99.30
41720;DHT22;27405;53.316;-6.294;2023-04-03T15:04:55;14.60;99.80
41720;DHT22;27405;53.316;-6.294;2023-04-03T15:07:21;15.00;99.90
41720;DHT22;27405;53.316;-6.294;2023-04-03T15:09:47;15.20;99.10
41720;DHT22;27405;53.316;-6.294;2023-04-03T15:12:13;15.30;98.80
41720;DHT22;27405;53.316;-6.294;2023-04-03T15:14:38;15.30;98.70
41720;DHT22;27405;53.316;-6.294;2023-04-03T15:17:05;15.20;98.40
41720;DHT22;27405;53.316;-6.294;2023-04-03T15:19:36;15.20;98.20
41720;DHT22;27405;53.316;-6.294;2023-04-03T15:22:03;15.20;98.40
41720;DHT22;27405;53.316;-6.294;2023-04-03T15:24:29;15.20;98.30
41720;DHT22;27405;53.316;-6.294;2023-04-03T15:26:54;15.30;98.50
41720;DHT22;27405;53.316;-6.294;2023-04-03T15:29:20;15.50;98.70
41720;DHT22;27405;53.316;-6.294;2023-04-03T15:31:46;15.80;98.40
41720;DHT22;27405;53.316;-6.294;2023-04-03T15:34:12;15.90;97.90
41720;DHT22;27405;53.316;-6.294;2023-04-03T15:36:37;15.90;97.20
41720;DHT22;27405;53.316;-6.294;2023-04-03T15:39:03;15.80;96.80
41720;DHT22;27405;53.316;-6.294;2023-04-03T15:41:29;15.80;96.80
41720;DHT22;27405;53.316;-6.294;2023-04-03T15:43:54;15.90;96.50
41720;DHT22;27405;53.316;-6.294;2023-04-03T15:46:20;16.00;96.50
41720;DHT22;27405;53.316;-6.294;2023-04-03T15:48:46;15.90;95.90
41720;DHT22;27405;53.316;-6.294;2023-04-03T15:51:12;15.70;95.70
41720;DHT22;27405;53.316;-6.294;2023-04-03T15:53:37;15.80;95.80
41720;DHT22;27405;53.316;-6.294;2023-04-03T15:56:03;15.80;95.80
41720;DHT22;27405;53.316;-6.294;2023-04-03T15:58:30;15.80;95.60
41720;DHT22;27405;53.316;-6.294;2023-04-03T16:00:55;15.70;95.30
41720;DHT22;27405;53.316;-6.294;2023-04-03T16:03:21;15.70;95.40
41720;DHT22;27405;53.316;-6.294;2023-04-03T16:05:49;15.60;95.40
41720;DHT22;27405;53.316;-6.294;2023-04-03T16:08:16;15.50;95.20
41720;DHT22;27405;53.316;-6.294;2023-04-03T16:10:43;15.40;95.10
41720;DHT22;27405;53.316;-6.294;2023-04-03T16:13:11;15.30;94.90
41720;DHT22;27405;53.316;-6.294;2023-04-03T16:15:37;15.10;94.80
41720;DHT22;27405;53.316;-6.294;2023-04-03T16:18:03;15.00;95.00
41720;DHT22;27405;53.316;-6.294;2023-04-03T16:20:30;14.90;95.10
41720;DHT22;27405;53.316;-6.294;2023-04-03T16:22:58;14.80;95.00
41720;DHT22;27405;53.316;-6.294;2023-04-03T16:25:25;14.70;95.10
41720;DHT22;27405;53.316;-6.294;2023-04-03T16:27:52;14.70;95.20
41720;DHT22;27405;53.316;-6.294;2023-04-03T16:30:17;14.70;95.10
41720;DHT22;27405;53.316;-6.294;2023-04-03T16:32:43;14.60;95.00
41720;DHT22;27405;53.316;-6.294;2023-04-03T16:35:10;14.50;95.20
41720;DHT22;27405;53.316;-6.294;2023-04-03T16:37:36;14.40;95.10
41720;DHT22;27405;53.316;-6.294;2023-04-03T16:40:03;14.30;95.30
41720;DHT22;27405;53.316;-6.294;2023-04-03T16:42:30;14.20;95.40
41720;DHT22;27405;53.316;-6.294;2023-04-03T16:44:56;14.20;95.50
41720;DHT22;27405;53.316;-6.294;2023-04-03T16:47:24;14.10;95.50
41720;DHT22;27405;53.316;-6.294;2023-04-03T16:49:49;14.10;95.60
41720;DHT22;27405;53.316;-6.294;2023-04-03T16:52:15;14.00;95.60
41720;DHT22;27405;53.316;-6.294;2023-04-03T16:54:41;13.90;95.60
41720;DHT22;27405;53.316;-6.294;2023-04-03T16:57:06;13.90;95.80
41720;DHT22;27405;53.316;-6.294;2023-04-03T16:59:32;13.80;95.80
41720;DHT22;27405;53.316;-6.294;2023-04-03T17:01:58;13.80;95.70
41720;DHT22;27405;53.316;-6.294;2023-04-03T17:04:23;13.70;95.70
41720;DHT22;27405;53.316;-6.294;2023-04-03T17:06:49;13.70;95.60
41720;DHT22;27405;53.316;-6.294;2023-04-03T17:09:17;13.60;95.70
41720;DHT22;27405;53.316;-6.294;2023-04-03T17:11:42;13.50;95.80
41720;DHT22;27405;53.316;-6.294;2023-04-03T17:14:08;13.40;95.80